createdAt,value
2022-09-06T00:00:43.595Z,2.25
2022-09-06T00:03:10.207Z,2.65
2022-09-06T00:05:36.907Z,2.88
2022-09-06T00:08:05.507Z,2.35
2022-09-06T00:10:32.792Z,2.47
2022-09-06T00:13:07.463Z,2.58
2022-09-06T00:15:35.253Z,2.13
2022-09-06T00:18:03.761Z,2.63
2022-09-06T00:20:31.873Z,2.45
2022-09-06T00:23:00.332Z,2.53
2022-09-06T00:25:27.577Z,2.20
2022-09-06T00:27:59.236Z,2.30
2022-09-06T00:30:26.679Z,2.43
2022-09-06T00:32:54.083Z,2.10
2022-09-06T00:35:22.139Z,2.70
2022-09-06T00:37:48.635Z,2.20
2022-09-06T00:40:15.195Z,2.60
2022-09-06T00:42:41.687Z,2.65
2022-09-06T00:45:10.354Z,2.40
2022-09-06T00:47:40.243Z,2.40
2022-09-06T00:50:07.618Z,2.20
2022-09-06T00:52:35.306Z,2.20
2022-09-06T00:55:01.987Z,2.47
2022-09-06T00:57:30.918Z,2.13
2022-09-06T00:59:58.444Z,2.40
2022-09-06T01:02:25.004Z,2.17
2022-09-06T01:04:52.760Z,1.92
2022-09-06T01:07:53.342Z,2.50
2022-09-06T01:10:46.265Z,2.30
2022-09-06T01:13:34.517Z,2.40
2022-09-06T01:16:13.950Z,2.20
2022-09-06T01:18:40.384Z,2.08
2022-09-06T01:21:27.678Z,2.13
2022-09-06T01:24:11.076Z,1.92
2022-09-06T01:26:59.017Z,2.05
2022-09-06T01:29:36.765Z,2.03
2022-09-06T01:32:15.181Z,2.50
2022-09-06T01:34:48.592Z,1.90
2022-09-06T01:37:20.264Z,2.15
2022-09-06T01:39:46.774Z,2.10
2022-09-06T01:42:23.726Z,1.88
2022-09-06T01:44:56.161Z,2.00
2022-09-06T01:47:36.988Z,1.90
2022-09-06T01:50:19.820Z,2.15
2022-09-06T01:55:56.083Z,1.90
2022-09-06T01:58:49.338Z,1.60
2022-09-06T02:01:47.987Z,1.75
2022-09-06T02:04:26.884Z,2.00
2022-09-06T02:07:07.140Z,1.98
2022-09-06T02:09:41.202Z,1.75
2022-09-06T02:12:12.296Z,1.75
2022-09-06T02:14:54.796Z,1.80
2022-09-06T02:17:26.481Z,1.80
2022-09-06T02:20:03.209Z,1.73
2022-09-06T02:22:35.056Z,1.50
2022-09-06T02:25:04.499Z,1.88
2022-09-06T02:27:31.274Z,1.80
2022-09-06T02:29:57.873Z,1.50
2022-09-06T02:32:26.449Z,1.85
2022-09-06T02:34:55.498Z,1.88
2022-09-06T02:37:26.002Z,1.70
2022-09-06T02:39:55.358Z,1.55
2022-09-06T02:42:23.047Z,1.40
2022-09-06T02:44:49.492Z,1.50
2022-09-06T02:47:16.789Z,1.75
2022-09-06T02:49:43.294Z,1.65
2022-09-06T02:52:09.801Z,1.70
2022-09-06T02:54:36.305Z,1.73
2022-09-06T02:57:02.737Z,1.80
2022-09-06T02:59:29.244Z,1.70
2022-09-06T03:01:55.738Z,1.60
2022-09-06T03:04:22.220Z,1.65
2022-09-06T03:06:48.715Z,1.50
2022-09-06T03:09:15.450Z,1.60
2022-09-06T03:11:41.942Z,1.65
2022-09-06T03:14:08.788Z,1.45
2022-09-06T03:16:35.371Z,1.60
2022-09-06T03:19:01.860Z,1.70
2022-09-06T03:21:28.377Z,1.40
2022-09-06T03:23:54.861Z,1.55
2022-09-06T03:26:21.362Z,1.50
2022-09-06T03:28:47.817Z,1.35
2022-09-06T03:31:14.378Z,1.70
2022-09-06T03:33:40.897Z,1.42
2022-09-06T03:36:07.766Z,1.60
2022-09-06T03:38:34.487Z,1.50
2022-09-06T03:41:00.929Z,1.55
2022-09-06T03:43:27.693Z,1.35
2022-09-06T03:45:57.253Z,1.40
2022-09-06T03:48:25.834Z,1.60
2022-09-06T03:50:54.946Z,1.42
2022-09-06T03:53:23.398Z,1.30
2022-09-06T03:55:52.635Z,1.50
2022-09-06T03:58:21.195Z,1.30
2022-09-06T04:00:48.095Z,1.35
2022-09-06T04:03:14.885Z,1.55
2022-09-06T04:05:46.391Z,1.20
2022-09-06T04:08:14.634Z,1.30
2022-09-06T04:10:45.270Z,1.35
2022-09-06T04:13:11.886Z,1.10
2022-09-06T04:15:38.409Z,1.38
2022-09-06T04:18:09.098Z,1.50
2022-09-06T04:20:35.830Z,1.25
2022-09-06T04:23:02.306Z,1.30
2022-09-06T04:25:28.851Z,1.40
2022-09-06T04:27:55.396Z,1.38
2022-09-06T04:30:21.980Z,1.30
2022-09-06T04:32:48.460Z,1.60
2022-09-06T04:35:14.990Z,1.38
2022-09-06T04:37:41.421Z,1.10
2022-09-06T04:40:09.068Z,1.38
2022-09-06T04:42:35.794Z,1.33
2022-09-06T04:45:02.275Z,1.20
2022-09-06T04:47:28.810Z,1.20
2022-09-06T04:49:55.395Z,1.30
2022-09-06T04:52:22.025Z,1.30
2022-09-06T04:54:48.593Z,1.40
2022-09-06T04:57:15.160Z,1.20
2022-09-06T04:59:41.611Z,1.60
2022-09-06T05:02:08.159Z,1.30
2022-09-06T05:04:34.623Z,1.15
2022-09-06T05:07:07.836Z,1.20
2022-09-06T05:09:34.954Z,1.30
2022-09-06T05:12:01.901Z,1.33
2022-09-06T05:14:29.368Z,1.10
2022-09-06T05:16:56.108Z,1.50
2022-09-06T05:19:22.991Z,1.10
2022-09-06T05:21:51.482Z,1.20
2022-09-06T05:24:18.151Z,1.20
2022-09-06T05:26:44.670Z,1.13
2022-09-06T05:29:11.132Z,1.00
2022-09-06T05:31:37.786Z,1.23
2022-09-06T05:34:04.401Z,1.40
2022-09-06T05:36:31.646Z,1.10
2022-09-06T05:38:58.870Z,1.15
2022-09-06T05:41:25.957Z,1.13
2022-09-06T05:43:52.778Z,1.30
2022-09-06T05:46:19.742Z,1.00
2022-09-06T05:48:52.901Z,1.40
2022-09-06T05:51:20.490Z,1.13
2022-09-06T05:53:47.137Z,1.20
2022-09-06T05:56:14.589Z,1.25
2022-09-06T05:58:41.172Z,1.02
2022-09-06T06:01:22.078Z,1.10
2022-09-06T06:03:55.663Z,1.27
2022-09-06T06:06:24.856Z,1.25
2022-09-06T06:08:51.593Z,1.50
2022-09-06T06:11:18.324Z,1.30
2022-09-06T06:13:45.062Z,1.40
2022-09-06T06:16:14.034Z,1.08
2022-09-06T06:18:41.147Z,0.93
2022-09-06T06:21:32.082Z,1.13
2022-09-06T06:24:01.238Z,1.25
2022-09-06T06:26:30.715Z,1.25
2022-09-06T06:29:01.781Z,1.67
2022-09-06T06:31:29.996Z,1.35
2022-09-06T06:33:57.146Z,1.13
2022-09-06T06:36:26.617Z,1.35
2022-09-06T06:38:55.308Z,1.20
2022-09-06T06:41:27.672Z,1.10
2022-09-06T06:44:01.725Z,1.10
2022-09-06T06:46:31.473Z,1.20
2022-09-06T06:48:57.932Z,1.30
2022-09-06T06:51:28.302Z,1.20
2022-09-06T06:53:56.871Z,1.00
2022-09-06T06:56:34.718Z,1.23
2022-09-06T06:59:03.166Z,1.35
2022-09-06T07:01:31.665Z,1.20
2022-09-06T07:03:58.592Z,1.20
2022-09-06T07:09:15.558Z,5.25
2022-09-06T07:11:42.254Z,67.50
2022-09-06T07:14:08.984Z,150.32
2022-09-06T07:16:35.955Z,131.32
2022-09-06T07:19:03.115Z,275.85
2022-09-06T07:24:05.850Z,237.00
2022-09-06T07:26:33.789Z,206.70
2022-09-06T07:29:01.833Z,200.73
2022-09-06T07:34:17.699Z,181.27
2022-09-06T07:36:44.239Z,175.65
2022-09-06T07:39:10.877Z,173.38
2022-09-06T07:41:37.347Z,193.73
2022-09-06T07:44:03.905Z,210.60
2022-09-06T07:46:30.441Z,183.68
2022-09-06T07:48:56.960Z,184.57
2022-09-06T07:51:23.499Z,175.30
2022-09-06T07:54:12.799Z,170.15
2022-09-06T07:56:45.316Z,163.57
2022-09-06T07:59:11.809Z,163.63
2022-09-06T08:01:39.432Z,153.85
2022-09-06T08:04:10.320Z,149.18
2022-09-06T08:09:27.117Z,152.77
2022-09-06T08:11:54.215Z,156.75
2022-09-06T08:14:23.927Z,150.50
2022-09-06T08:16:53.612Z,152.68
2022-09-06T08:19:20.346Z,170.63
2022-09-06T08:21:47.217Z,163.05
2022-09-06T08:24:14.048Z,186.15
2022-09-06T08:26:42.600Z,186.75
2022-09-06T08:29:11.045Z,185.45
2022-09-06T08:31:40.970Z,181.15
2022-09-06T08:34:08.376Z,175.15
2022-09-06T08:55:49.115Z,107.93
2022-09-06T08:58:45.696Z,99.18
2022-09-06T09:01:17.304Z,92.68
2022-09-06T09:03:44.796Z,82.83
2022-09-06T09:06:11.735Z,77.63
2022-09-06T09:08:44.342Z,71.07
2022-09-06T09:11:16.954Z,68.45
2022-09-06T09:14:19.121Z,60.42
2022-09-06T09:16:45.740Z,55.15
2022-09-06T09:19:13.264Z,52.22
2022-09-06T09:21:40.575Z,50.25
2022-09-06T09:24:12.971Z,45.72
2022-09-06T09:26:51.799Z,44.10
2022-09-06T09:29:18.605Z,39.72
2022-09-06T09:31:53.535Z,29.92
2022-09-06T09:34:33.715Z,34.20
2022-09-06T09:40:39.016Z,31.65
2022-09-06T09:43:16.648Z,29.38
2022-09-06T09:45:44.013Z,27.38
2022-09-06T09:48:36.946Z,26.00
2022-09-06T09:53:56.829Z,22.27
2022-09-06T09:56:44.560Z,20.67
2022-09-06T09:59:22.034Z,19.38
2022-09-06T10:01:48.607Z,18.42
2022-09-06T10:04:46.118Z,19.20
2022-09-06T10:07:19.676Z,16.83
2022-09-06T10:10:07.447Z,15.77
2022-09-06T10:12:39.266Z,15.25
2022-09-06T10:15:08.420Z,16.70
2022-09-06T10:17:47.911Z,15.20
2022-09-06T10:20:14.970Z,37.45
2022-09-06T10:22:41.337Z,136.77
2022-09-06T10:25:41.504Z,66.07
2022-09-06T10:28:24.586Z,68.10
2022-09-06T10:31:16.146Z,125.93
2022-09-06T10:34:07.619Z,135.10
2022-09-06T10:36:37.178Z,91.72
2022-09-06T10:39:21.366Z,75.40
2022-09-06T10:41:57.229Z,73.72
2022-09-06T10:44:24.201Z,131.88
2022-09-06T10:47:08.960Z,175.80
2022-09-06T10:49:38.413Z,257.23
2022-09-06T10:52:09.418Z,154.85
2022-09-06T10:54:40.831Z,184.52
2022-09-06T11:00:13.468Z,231.70
2022-09-06T11:05:45.528Z,241.43
2022-09-06T11:11:26.648Z,272.15
2022-09-06T11:13:53.168Z,191.65
2022-09-06T11:16:27.456Z,184.20
2022-09-06T11:18:57.223Z,174.88
2022-09-06T11:21:50.925Z,167.82
2022-09-06T11:24:52.560Z,163.85
2022-09-06T11:27:35.711Z,149.80
2022-09-06T11:30:05.963Z,142.88
2022-09-06T11:32:35.966Z,141.98
2022-09-06T11:35:20.455Z,133.45
2022-09-06T11:37:50.726Z,132.10
2022-09-06T11:42:55.167Z,121.72
2022-09-06T11:45:44.232Z,119.97
2022-09-06T11:48:34.936Z,114.15
2022-09-06T11:51:03.809Z,108.40
2022-09-06T11:53:55.219Z,106.80
2022-09-06T11:56:31.498Z,101.97
2022-09-06T11:59:04.193Z,96.03
2022-09-06T12:01:30.591Z,92.00
2022-09-06T12:04:05.529Z,91.30
2022-09-06T12:06:41.139Z,89.28
2022-09-06T12:09:28.328Z,86.03
2022-09-06T12:11:56.549Z,84.20
2022-09-06T12:14:52.308Z,82.25
2022-09-06T12:17:20.225Z,77.80
2022-09-06T12:19:48.114Z,72.97
2022-09-06T12:22:46.744Z,72.32
2022-09-06T12:25:52.907Z,73.53
2022-09-06T12:28:27.532Z,67.18
2022-09-06T12:30:54.237Z,58.13
2022-09-06T12:33:27.685Z,153.10
2022-09-06T12:36:11.693Z,158.00
2022-09-06T12:38:38.191Z,252.38
2022-09-06T12:41:05.734Z,229.10
2022-09-06T12:43:36.153Z,300.67
2022-09-06T12:46:07.129Z,210.18
2022-09-06T12:48:39.077Z,358.83
2022-09-06T12:51:09.348Z,338.25
2022-09-06T12:53:35.856Z,214.80
2022-09-06T12:56:14.145Z,173.02
2022-09-06T12:58:41.145Z,153.50
2022-09-06T13:01:10.805Z,137.52
2022-09-06T13:03:43.712Z,127.22
2022-09-06T13:06:14.646Z,115.25
2022-09-06T13:08:53.268Z,161.02
2022-09-06T13:11:28.239Z,205.65
2022-09-06T13:13:55.411Z,272.48
2022-09-06T13:16:24.820Z,221.73
2022-09-06T13:18:51.636Z,154.32
2022-09-06T13:21:35.654Z,129.30
2022-09-06T13:24:24.247Z,119.72
2022-09-06T13:26:51.766Z,108.15
2022-09-06T13:29:18.203Z,94.18
2022-09-06T13:31:46.599Z,94.25
2022-09-06T13:34:21.719Z,82.63
2022-09-06T13:36:50.039Z,82.25
2022-09-06T13:39:46.263Z,80.90
2022-09-06T13:42:33.438Z,81.95
2022-09-06T13:45:20.472Z,79.13
2022-09-06T13:47:46.983Z,76.30
2022-09-06T13:50:13.564Z,73.88
2022-09-06T13:52:40.025Z,75.07
2022-09-06T13:55:07.412Z,74.82
2022-09-06T13:57:34.124Z,70.80
2022-09-06T14:00:00.611Z,67.22
2022-09-06T14:02:27.308Z,65.57
2022-09-06T14:04:53.971Z,66.63
2022-09-06T14:07:20.717Z,64.63
2022-09-06T14:09:47.962Z,61.03
2022-09-06T14:12:14.449Z,61.90
2022-09-06T14:14:41.114Z,60.10
2022-09-06T14:17:07.590Z,60.22
2022-09-06T14:19:34.086Z,59.25
2022-09-06T14:22:00.582Z,58.83
2022-09-06T14:24:27.143Z,58.25
2022-09-06T14:26:53.670Z,56.28
2022-09-06T14:29:20.617Z,54.70
2022-09-06T14:31:48.964Z,54.95
2022-09-06T14:34:15.668Z,54.30
2022-09-06T14:36:42.217Z,53.40
2022-09-06T14:39:08.849Z,52.58
2022-09-06T14:41:35.679Z,51.85
2022-09-06T14:44:03.108Z,50.33
2022-09-06T14:46:30.150Z,52.13
2022-09-06T14:49:07.432Z,49.67
2022-09-06T14:51:35.973Z,48.35
2022-09-06T14:54:06.362Z,47.40
2022-09-06T14:56:39.357Z,48.08
2022-09-06T14:59:06.867Z,46.97
2022-09-06T15:01:38.049Z,45.80
2022-09-06T15:04:07.463Z,45.13
2022-09-06T15:06:36.984Z,43.60
2022-09-06T15:09:05.767Z,44.92
2022-09-06T15:11:36.424Z,43.38
2022-09-06T15:14:04.961Z,43.30
2022-09-06T15:16:32.716Z,43.70
2022-09-06T15:18:59.563Z,42.05
2022-09-06T15:21:26.653Z,40.85
2022-09-06T15:23:53.841Z,41.20
2022-09-06T15:26:20.954Z,40.28
2022-09-06T15:28:47.976Z,40.13
2022-09-06T15:31:17.546Z,39.67
2022-09-06T15:33:44.445Z,37.67
2022-09-06T15:36:11.895Z,37.20
2022-09-06T15:38:42.615Z,39.05
2022-09-06T15:41:21.365Z,36.53
2022-09-06T15:43:50.617Z,36.75
2022-09-06T15:46:24.275Z,37.50
2022-09-06T15:48:53.742Z,35.42
2022-09-06T15:51:21.333Z,36.25
2022-09-06T15:53:48.068Z,34.63
2022-09-06T15:56:17.201Z,33.13
2022-09-06T15:58:49.244Z,33.35
2022-09-06T16:01:23.312Z,34.28
2022-09-06T16:04:07.052Z,33.05
2022-09-06T16:06:38.181Z,33.05
2022-09-06T16:09:10.717Z,32.22
2022-09-06T16:14:12.523Z,30.38
2022-09-06T16:16:40.449Z,30.63
2022-09-06T16:19:07.892Z,29.40
2022-09-06T16:21:34.816Z,29.92
2022-09-06T16:24:10.112Z,29.88
2022-09-06T16:26:39.539Z,29.27
2022-09-06T16:29:10.967Z,28.75
2022-09-06T16:31:40.236Z,29.05
2022-09-06T16:34:08.639Z,27.77
2022-09-06T16:36:35.470Z,27.42
2022-09-06T16:39:02.238Z,28.08
2022-09-06T16:41:37.708Z,26.92
2022-09-06T16:44:04.302Z,26.95
2022-09-06T16:46:31.198Z,26.67
2022-09-06T16:49:01.438Z,25.77
2022-09-06T16:51:28.242Z,26.95
2022-09-06T16:53:56.170Z,25.27
2022-09-06T16:56:25.186Z,25.65
2022-09-06T16:58:57.030Z,24.65
2022-09-06T17:01:27.895Z,25.42
2022-09-06T17:03:54.814Z,24.67
2022-09-06T17:06:25.560Z,24.60
2022-09-06T17:08:52.144Z,24.73
2022-09-06T17:11:21.163Z,22.85
2022-09-06T17:13:50.754Z,23.35
2022-09-06T17:16:39.988Z,22.45
2022-09-06T17:19:12.125Z,22.23
2022-09-06T17:21:40.130Z,22.33
2022-09-06T17:24:08.042Z,21.35
2022-09-06T17:26:36.339Z,20.27
2022-09-06T17:29:03.840Z,21.48
2022-09-06T17:31:30.518Z,20.35
2022-09-06T17:33:58.097Z,20.38
2022-09-06T17:36:27.860Z,19.38
2022-09-06T17:39:00.586Z,20.40
2022-09-06T17:41:30.948Z,20.30
2022-09-06T17:43:58.710Z,20.27
2022-09-06T17:46:28.948Z,19.55
2022-09-06T17:48:56.583Z,18.52
2022-09-06T17:51:24.295Z,19.33
2022-09-06T17:53:51.582Z,18.85
2022-09-06T17:56:19.002Z,19.20
2022-09-06T17:58:57.663Z,18.58
2022-09-06T18:01:25.894Z,17.58
2022-09-06T18:03:52.943Z,18.42
2022-09-06T18:06:22.911Z,18.02
2022-09-06T18:08:51.788Z,16.77
2022-09-06T18:11:22.646Z,17.40
2022-09-06T18:13:58.766Z,17.55
2022-09-06T18:16:26.923Z,16.80
2022-09-06T18:18:56.135Z,16.55
2022-09-06T18:21:24.211Z,16.23
2022-09-06T18:23:51.255Z,15.85
2022-09-06T18:26:18.188Z,15.40
2022-09-06T18:28:44.698Z,16.17
2022-09-06T18:31:13.972Z,15.75
2022-09-06T18:33:42.267Z,15.05
2022-09-06T18:36:10.217Z,15.15
2022-09-06T18:38:38.462Z,14.82
2022-09-06T18:41:07.412Z,14.73
2022-09-06T18:43:42.585Z,15.25
2022-09-06T18:46:13.310Z,13.95
2022-09-06T18:48:40.781Z,14.32
2022-09-06T18:51:11.431Z,13.85
2022-09-06T18:53:43.974Z,14.65
2022-09-06T18:56:13.129Z,14.05
2022-09-06T18:58:40.424Z,13.63
2022-09-06T19:01:16.067Z,14.35
2022-09-06T19:03:43.882Z,13.80
2022-09-06T19:06:20.046Z,13.55
2022-09-06T19:08:47.776Z,13.35
2022-09-06T19:11:17.094Z,12.88
2022-09-06T19:13:45.102Z,13.43
2022-09-06T19:16:13.485Z,12.68
2022-09-06T19:18:40.747Z,12.85
2022-09-06T19:21:08.540Z,12.38
2022-09-06T19:23:39.638Z,12.82
2022-09-06T19:26:13.433Z,11.88
2022-09-06T19:28:40.407Z,12.10
2022-09-06T19:31:09.674Z,11.60
2022-09-06T19:33:36.488Z,11.93
2022-09-06T19:36:11.541Z,11.98
2022-09-06T19:39:02.097Z,11.55
2022-09-06T19:41:27.175Z,12.10
2022-09-06T19:43:55.498Z,11.43
2022-09-06T19:46:22.677Z,12.43
2022-09-06T19:48:53.583Z,11.23
2022-09-06T19:51:20.860Z,10.95
2022-09-06T19:53:50.075Z,10.77
2022-09-06T19:56:18.668Z,10.48
2022-09-06T19:58:45.590Z,10.90
2022-09-06T20:01:17.918Z,9.82
2022-09-06T20:03:44.776Z,10.07
2022-09-06T20:06:11.953Z,10.07
2022-09-06T20:08:39.803Z,9.55
2022-09-06T20:11:08.719Z,9.60
2022-09-06T20:13:36.990Z,10.20
2022-09-06T20:16:05.287Z,9.90
2022-09-06T20:18:31.907Z,9.52
2022-09-06T20:21:01.265Z,9.60
2022-09-06T20:23:29.152Z,9.32
2022-09-06T20:26:02.656Z,9.73
2022-09-06T20:28:29.512Z,9.57
2022-09-06T20:31:01.175Z,9.23
2022-09-06T20:33:28.387Z,9.27
2022-09-06T20:36:02.718Z,8.85
2022-09-06T20:38:30.648Z,8.75
2022-09-06T20:41:02.750Z,8.55
2022-09-06T20:43:33.581Z,8.02
2022-09-06T20:46:00.779Z,8.63
2022-09-06T20:48:27.416Z,8.52
2022-09-06T20:50:58.871Z,9.10
2022-09-06T20:53:25.813Z,8.25
2022-09-06T20:55:56.808Z,8.35
2022-09-06T20:58:23.507Z,8.65
2022-09-06T21:00:50.023Z,8.30
2022-09-06T21:03:16.539Z,7.95
2022-09-06T21:05:43.417Z,8.43
2022-09-06T21:08:10.369Z,8.00
2022-09-06T21:10:36.869Z,7.55
2022-09-06T21:13:03.755Z,7.95
2022-09-06T21:15:34.477Z,8.07
2022-09-06T21:18:01.453Z,7.85
2022-09-06T21:20:28.084Z,7.57
2022-09-06T21:22:54.568Z,7.95
2022-09-06T21:25:21.208Z,7.55
2022-09-06T21:27:47.667Z,7.15
2022-09-06T21:30:14.759Z,7.35
2022-09-06T21:32:41.426Z,7.13
2022-09-06T21:35:08.505Z,7.22
2022-09-06T21:37:35.176Z,6.82
2022-09-06T21:40:02.008Z,7.55
2022-09-06T21:42:29.040Z,7.35
2022-09-06T21:44:55.604Z,6.63
2022-09-06T21:47:22.147Z,6.65
2022-09-06T21:49:48.677Z,6.75
2022-09-06T21:52:15.147Z,7.00
2022-09-06T21:54:41.640Z,6.60
2022-09-06T21:57:08.133Z,6.55
2022-09-06T21:59:34.650Z,6.55
2022-09-06T22:02:01.214Z,6.50
2022-09-06T22:04:27.890Z,6.95
2022-09-06T22:06:54.620Z,6.60
2022-09-06T22:09:21.960Z,6.47
2022-09-06T22:11:48.447Z,6.63
2022-09-06T22:14:15.283Z,6.05
2022-09-06T22:16:42.386Z,6.18
2022-09-06T22:19:09.973Z,6.50
2022-09-06T22:21:38.652Z,6.10
2022-09-06T22:24:07.814Z,6.07
2022-09-06T22:26:36.597Z,5.75
2022-09-06T22:29:06.402Z,5.75
2022-09-06T22:31:34.525Z,6.30
2022-09-06T22:34:01.451Z,5.85
2022-09-06T22:36:28.295Z,5.93
2022-09-06T22:38:58.601Z,5.80
2022-09-06T22:41:27.162Z,5.80
2022-09-06T22:43:54.176Z,5.40
2022-09-06T22:46:20.801Z,5.55
2022-09-06T22:48:47.421Z,5.30
2022-09-06T22:51:13.890Z,5.63
2022-09-06T22:53:40.360Z,5.90
2022-09-06T22:56:07.070Z,5.20
2022-09-06T22:58:35.234Z,5.40
2022-09-06T23:01:10.397Z,5.20
2022-09-06T23:03:37.883Z,5.60
2022-09-06T23:06:05.434Z,5.18
2022-09-06T23:08:32.214Z,5.68
2022-09-06T23:11:04.247Z,5.30
2022-09-06T23:13:30.965Z,4.90
2022-09-06T23:16:02.960Z,5.35
2022-09-06T23:18:29.590Z,5.30
2022-09-06T23:20:56.096Z,5.47
2022-09-06T23:23:22.563Z,4.72
2022-09-06T23:25:49.108Z,4.97
2022-09-06T23:28:15.662Z,5.07
2022-09-06T23:30:42.167Z,5.18
2022-09-06T23:33:08.619Z,4.90
2022-09-06T23:35:35.077Z,4.68
2022-09-06T23:38:01.568Z,5.18
2022-09-06T23:40:28.014Z,4.55
2022-09-06T23:42:54.750Z,4.47
2022-09-06T23:45:21.231Z,4.53
2022-09-06T23:47:47.720Z,4.00
2022-09-06T23:50:15.106Z,4.32
2022-09-06T23:52:41.604Z,4.55
2022-09-06T23:55:09.393Z,4.65
2022-09-06T23:57:35.999Z,4.60
